createdAt,value
2018-03-27T00:01:59.386Z,20.47
2018-03-27T00:04:25.322Z,20.46
2018-03-27T00:06:51.330Z,20.45
2018-03-27T00:09:17.329Z,20.42
2018-03-27T00:11:43.303Z,20.44
2018-03-27T00:14:09.311Z,20.40
2018-03-27T00:16:35.302Z,20.44
2018-03-27T00:19:01.241Z,20.44
2018-03-27T00:21:27.181Z,20.48
2018-03-27T00:23:53.126Z,20.43
2018-03-27T00:26:19.078Z,20.43
2018-03-27T00:28:45.054Z,20.45
2018-03-27T00:31:10.989Z,20.45
2018-03-27T00:33:36.951Z,20.43
2018-03-27T00:36:02.903Z,20.44
2018-03-27T00:38:28.837Z,20.42
2018-03-27T00:40:54.778Z,20.37
2018-03-27T00:43:20.718Z,20.41
2018-03-27T00:45:46.682Z,20.42
2018-03-27T00:48:12.633Z,20.44
2018-03-27T00:50:38.592Z,20.36
2018-03-27T00:53:04.605Z,20.39
2018-03-27T00:55:30.665Z,20.34
2018-03-27T00:57:56.605Z,20.38
2018-03-27T01:00:22.571Z,20.36
2018-03-27T01:02:48.509Z,20.32
2018-03-27T01:05:14.477Z,20.35
2018-03-27T01:07:40.424Z,20.35
2018-03-27T01:10:06.369Z,20.36
2018-03-27T01:12:32.304Z,20.32
2018-03-27T01:14:58.365Z,20.33
2018-03-27T01:17:24.332Z,20.30
2018-03-27T01:19:50.277Z,20.33
2018-03-27T01:22:16.253Z,20.32
2018-03-27T01:24:42.197Z,20.33
2018-03-27T01:27:08.153Z,20.34
2018-03-27T01:29:34.104Z,20.33
2018-03-27T01:32:00.047Z,20.34
2018-03-27T01:34:26.027Z,20.30
2018-03-27T01:36:51.981Z,20.27
2018-03-27T01:39:17.924Z,20.31
2018-03-27T01:41:43.889Z,20.31
2018-03-27T01:44:09.836Z,20.26
2018-03-27T01:46:35.790Z,20.24
2018-03-27T01:49:01.739Z,20.29
2018-03-27T01:51:27.686Z,20.28
2018-03-27T01:53:53.638Z,20.27
2018-03-27T01:56:19.707Z,20.22
2018-03-27T01:58:45.657Z,20.24
2018-03-27T02:01:11.601Z,20.26
2018-03-27T02:03:37.586Z,20.24
2018-03-27T02:06:03.524Z,20.21
2018-03-27T02:08:29.469Z,20.24
2018-03-27T02:10:55.521Z,20.26
2018-03-27T02:13:21.479Z,20.23
2018-03-27T02:15:47.438Z,20.26
2018-03-27T02:18:13.433Z,20.26
2018-03-27T02:20:39.392Z,20.21
2018-03-27T02:23:05.350Z,20.21
2018-03-27T02:25:31.335Z,20.28
2018-03-27T02:27:57.281Z,20.24
2018-03-27T02:30:23.218Z,20.20
2018-03-27T02:32:49.235Z,20.18
2018-03-27T02:35:15.194Z,20.21
2018-03-27T02:37:41.155Z,20.20
2018-03-27T02:40:07.110Z,20.19
2018-03-27T02:42:33.113Z,20.15
2018-03-27T02:44:59.065Z,20.15
2018-03-27T02:47:25.012Z,20.13
2018-03-27T02:49:51.007Z,20.16
2018-03-27T02:52:16.947Z,20.20
2018-03-27T02:54:42.905Z,20.22
2018-03-27T02:57:08.851Z,20.14
2018-03-27T02:59:34.822Z,20.18
2018-03-27T03:02:00.769Z,20.19
2018-03-27T03:04:26.720Z,20.15
2018-03-27T03:06:52.709Z,20.17
2018-03-27T03:09:18.665Z,20.19
2018-03-27T03:11:44.606Z,20.15
2018-03-27T03:14:10.541Z,20.15
2018-03-27T03:16:36.485Z,20.14
2018-03-27T03:19:02.453Z,20.11
2018-03-27T03:21:28.392Z,20.14
2018-03-27T03:23:54.326Z,20.11
2018-03-27T03:26:20.290Z,20.11
2018-03-27T03:28:46.221Z,20.17
2018-03-27T03:31:12.174Z,20.14
2018-03-27T03:33:38.146Z,20.19
2018-03-27T03:36:04.081Z,20.31
2018-03-27T03:38:30.046Z,20.36
2018-03-27T03:40:55.990Z,20.42
2018-03-27T03:43:21.985Z,20.55
2018-03-27T03:45:47.930Z,20.56
2018-03-27T03:48:13.866Z,20.62
2018-03-27T03:50:39.817Z,20.66
2018-03-27T03:53:05.765Z,20.76
2018-03-27T03:55:31.723Z,20.72
2018-03-27T03:57:57.653Z,20.70
2018-03-27T04:00:23.599Z,20.76
2018-03-27T04:02:49.543Z,20.83
2018-03-27T04:05:15.473Z,20.79
2018-03-27T04:07:41.414Z,20.75
2018-03-27T04:10:07.417Z,20.71
2018-03-27T04:12:33.396Z,20.69
2018-03-27T04:14:59.355Z,20.73
2018-03-27T04:17:25.298Z,20.65
2018-03-27T04:19:51.295Z,20.75
2018-03-27T04:22:17.218Z,20.72
2018-03-27T04:24:43.169Z,20.64
2018-03-27T04:27:09.126Z,20.62
2018-03-27T04:29:35.061Z,20.58
2018-03-27T04:32:01.006Z,20.60
2018-03-27T04:34:26.946Z,20.62
2018-03-27T04:36:52.889Z,20.55
2018-03-27T04:39:18.861Z,20.57
2018-03-27T04:41:44.790Z,20.59
2018-03-27T04:44:10.742Z,20.61
2018-03-27T04:46:36.758Z,20.56
2018-03-27T04:49:02.709Z,20.57
2018-03-27T04:51:28.652Z,20.58
2018-03-27T04:53:54.674Z,20.64
2018-03-27T04:56:20.630Z,20.56
2018-03-27T04:58:46.570Z,20.56
2018-03-27T05:01:12.654Z,20.58
2018-03-27T05:03:38.597Z,20.66
2018-03-27T05:06:04.549Z,20.60
2018-03-27T05:08:30.489Z,20.65
2018-03-27T05:10:56.429Z,20.64
2018-03-27T05:13:22.384Z,20.59
2018-03-27T05:15:48.355Z,20.59
2018-03-27T05:18:14.303Z,20.60
2018-03-27T05:20:40.245Z,20.62
2018-03-27T05:23:06.197Z,20.61
2018-03-27T05:25:32.166Z,20.56
2018-03-27T05:27:58.113Z,20.59
2018-03-27T05:30:24.065Z,20.59
2018-03-27T05:32:50.012Z,20.61
2018-03-27T05:35:15.997Z,20.66
2018-03-27T05:37:42.054Z,20.57
2018-03-27T05:40:08.001Z,20.61
2018-03-27T05:42:33.956Z,20.60
2018-03-27T05:44:59.893Z,20.61
2018-03-27T05:47:25.841Z,20.58
2018-03-27T05:49:51.781Z,20.59
2018-03-27T05:52:17.737Z,20.62
2018-03-27T05:54:43.686Z,20.61
2018-03-27T05:57:09.797Z,20.65
2018-03-27T05:59:35.737Z,20.69
2018-03-27T06:02:01.722Z,20.62
2018-03-27T06:04:27.634Z,20.60
2018-03-27T06:06:53.602Z,20.60
2018-03-27T06:09:19.545Z,20.63
2018-03-27T06:11:45.502Z,20.68
2018-03-27T06:14:11.441Z,20.72
2018-03-27T06:16:37.500Z,20.76
2018-03-27T06:19:03.558Z,20.76
2018-03-27T06:21:29.542Z,20.83
2018-03-27T06:23:55.573Z,20.79
2018-03-27T06:26:21.530Z,20.73
2018-03-27T06:28:47.525Z,20.75
2018-03-27T06:31:13.571Z,20.74
2018-03-27T06:33:39.593Z,20.74
2018-03-27T06:36:05.549Z,20.76
2018-03-27T06:38:31.506Z,20.70
2018-03-27T06:40:57.485Z,20.66
2018-03-27T06:43:23.453Z,20.63
2018-03-27T06:45:49.485Z,20.70
2018-03-27T06:48:15.420Z,20.74
2018-03-27T06:50:41.365Z,20.70
2018-03-27T06:53:07.338Z,20.72
2018-03-27T06:55:33.289Z,20.71
2018-03-27T06:57:59.370Z,20.69
2018-03-27T07:00:25.326Z,20.86
2018-03-27T07:02:51.262Z,20.75
2018-03-27T07:05:17.299Z,20.72
2018-03-27T07:07:43.307Z,20.75
2018-03-27T07:10:09.232Z,20.75
2018-03-27T07:12:35.234Z,20.80
2018-03-27T07:15:01.206Z,20.74
2018-03-27T07:17:27.110Z,20.69
2018-03-27T07:19:53.078Z,20.73
2018-03-27T07:22:19.011Z,20.72
2018-03-27T07:24:44.963Z,20.70
2018-03-27T07:27:10.920Z,20.68
2018-03-27T07:29:36.869Z,20.75
2018-03-27T07:32:02.821Z,20.68
2018-03-27T07:34:28.774Z,20.71
2018-03-27T07:36:54.714Z,20.72
2018-03-27T07:39:20.660Z,20.75
2018-03-27T07:41:46.629Z,20.68
2018-03-27T07:44:12.574Z,20.69
2018-03-27T07:46:38.535Z,20.70
2018-03-27T07:49:04.546Z,20.68
2018-03-27T07:51:30.506Z,20.69
2018-03-27T07:53:56.454Z,20.70
2018-03-27T07:56:22.411Z,20.72
2018-03-27T07:58:48.372Z,20.69
2018-03-27T08:01:14.313Z,20.71
2018-03-27T08:03:40.270Z,20.66
2018-03-27T08:06:06.214Z,20.66
2018-03-27T08:08:32.158Z,20.67
2018-03-27T08:10:58.127Z,20.71
2018-03-27T08:13:24.080Z,20.67
2018-03-27T08:15:50.018Z,20.69
2018-03-27T08:18:15.990Z,20.66
2018-03-27T08:20:41.922Z,20.70
2018-03-27T08:23:08.022Z,20.70
2018-03-27T08:25:33.962Z,20.72
2018-03-27T08:27:59.908Z,20.70
2018-03-27T08:30:25.948Z,20.70
2018-03-27T08:32:51.891Z,20.70
2018-03-27T08:35:17.849Z,20.70
2018-03-27T08:37:43.861Z,20.70
2018-03-27T08:40:09.829Z,20.71
2018-03-27T08:42:35.779Z,20.74
2018-03-27T08:45:01.775Z,20.75
2018-03-27T08:47:27.738Z,20.73
2018-03-27T08:49:53.686Z,20.73
2018-03-27T08:52:19.669Z,20.73
2018-03-27T08:54:45.658Z,20.69
2018-03-27T08:57:11.575Z,20.74
2018-03-27T08:59:37.534Z,20.74
2018-03-27T09:02:03.465Z,20.74
2018-03-27T09:04:29.439Z,20.73
2018-03-27T09:06:55.528Z,20.75
2018-03-27T09:09:21.565Z,20.74
2018-03-27T09:11:47.504Z,20.83
2018-03-27T09:14:13.438Z,20.80
2018-03-27T09:16:39.401Z,20.80
2018-03-27T09:19:05.366Z,20.75
2018-03-27T09:21:31.338Z,20.73
2018-03-27T09:23:57.319Z,20.74
2018-03-27T09:26:23.305Z,20.73
2018-03-27T09:28:49.278Z,20.79
2018-03-27T09:31:15.246Z,20.77
2018-03-27T09:33:41.191Z,20.78
2018-03-27T09:36:07.208Z,20.76
2018-03-27T09:38:33.137Z,20.74
2018-03-27T09:40:59.090Z,20.73
2018-03-27T09:43:25.048Z,20.76
2018-03-27T09:45:51.088Z,20.75
2018-03-27T09:48:17.069Z,20.80
2018-03-27T09:50:43.009Z,20.74
2018-03-27T09:53:08.954Z,20.73
2018-03-27T09:55:34.898Z,20.73
2018-03-27T09:58:00.870Z,20.90
2018-03-27T10:00:27.053Z,20.97
2018-03-27T10:02:53.061Z,20.88
2018-03-27T10:05:19.096Z,20.79
2018-03-27T10:07:45.034Z,20.86
2018-03-27T10:10:10.934Z,20.87
2018-03-27T10:12:37.901Z,20.79
2018-03-27T10:15:03.988Z,20.78
2018-03-27T10:17:29.947Z,20.79
2018-03-27T10:19:55.898Z,20.78
2018-03-27T10:22:21.898Z,20.78
2018-03-27T10:24:47.866Z,20.76
2018-03-27T10:27:13.825Z,20.75
2018-03-27T10:29:39.794Z,20.74
2018-03-27T10:32:05.786Z,20.74
2018-03-27T10:34:31.774Z,20.71
2018-03-27T10:36:57.721Z,20.72
2018-03-27T10:39:23.718Z,20.78
2018-03-27T10:41:49.740Z,20.78
2018-03-27T10:44:15.682Z,20.75
2018-03-27T10:46:41.646Z,20.76
2018-03-27T10:49:07.581Z,20.76
2018-03-27T10:51:33.550Z,20.77
2018-03-27T10:53:59.511Z,20.77
2018-03-27T10:56:25.459Z,20.83
2018-03-27T10:58:51.462Z,20.78
2018-03-27T11:01:17.417Z,20.89
2018-03-27T11:03:43.369Z,20.79
2018-03-27T11:06:09.322Z,20.77
2018-03-27T11:08:35.295Z,20.77
2018-03-27T11:11:01.235Z,20.73
2018-03-27T11:13:27.174Z,20.68
2018-03-27T11:15:53.129Z,20.72
2018-03-27T11:18:19.089Z,20.71
2018-03-27T11:20:45.041Z,20.72
2018-03-27T11:23:10.974Z,20.70
2018-03-27T11:25:36.913Z,20.72
2018-03-27T11:28:02.874Z,20.71
2018-03-27T11:30:28.826Z,20.69
2018-03-27T11:32:54.805Z,20.69
2018-03-27T11:35:20.739Z,20.67
2018-03-27T11:37:46.766Z,20.73
2018-03-27T11:40:12.730Z,20.68
2018-03-27T11:42:38.669Z,20.69
2018-03-27T11:45:04.637Z,20.67
2018-03-27T11:47:30.597Z,20.66
2018-03-27T11:49:56.542Z,20.70
2018-03-27T11:52:22.517Z,20.73
2018-03-27T11:54:48.461Z,20.75
2018-03-27T11:57:14.405Z,20.76
2018-03-27T11:59:40.379Z,20.77
2018-03-27T12:02:06.351Z,20.72
2018-03-27T12:04:32.294Z,20.70
2018-03-27T12:06:58.238Z,20.73
2018-03-27T12:09:24.175Z,20.71
2018-03-27T12:11:50.125Z,20.71
2018-03-27T12:14:16.071Z,20.74
2018-03-27T12:16:42.026Z,20.70
2018-03-27T12:19:07.978Z,20.66
2018-03-27T12:21:33.922Z,20.64
2018-03-27T12:23:59.883Z,20.66
2018-03-27T12:26:25.826Z,20.65
2018-03-27T12:28:51.790Z,20.65
2018-03-27T12:31:17.745Z,20.69
2018-03-27T12:33:43.752Z,20.64
2018-03-27T12:36:09.660Z,20.64
2018-03-27T12:38:35.621Z,20.65
2018-03-27T12:41:01.574Z,20.64
2018-03-27T12:43:27.514Z,20.76
2018-03-27T12:45:53.486Z,20.69
2018-03-27T12:48:19.425Z,20.63
2018-03-27T12:50:45.493Z,20.85
2018-03-27T12:53:11.481Z,20.75
2018-03-27T12:55:37.426Z,20.68
2018-03-27T13:00:35.504Z,20.65
2018-03-27T13:03:01.437Z,20.65
2018-03-27T13:05:27.383Z,20.73
2018-03-27T13:07:53.324Z,20.73
2018-03-27T13:10:19.321Z,20.74
2018-03-27T13:12:45.258Z,20.87
2018-03-27T13:15:11.326Z,20.75
2018-03-27T13:17:37.355Z,20.92
2018-03-27T13:20:03.297Z,20.76
2018-03-27T13:22:29.252Z,20.79
2018-03-27T13:24:55.215Z,20.80
2018-03-27T13:27:21.163Z,20.72
2018-03-27T13:29:47.181Z,20.79
2018-03-27T13:32:13.292Z,20.75
2018-03-27T13:34:39.197Z,20.72
2018-03-27T13:37:05.154Z,20.74
2018-03-27T13:39:31.206Z,20.75
2018-03-27T13:41:57.245Z,20.76
2018-03-27T13:44:23.446Z,20.76
2018-03-27T13:46:49.413Z,20.70
2018-03-27T13:49:15.409Z,20.90
2018-03-27T13:51:41.342Z,20.77
2018-03-27T13:54:07.360Z,20.80
2018-03-27T13:56:33.487Z,20.70
2018-03-27T13:58:59.428Z,20.68
2018-03-27T14:01:25.361Z,20.74
2018-03-27T14:03:51.394Z,20.72
2018-03-27T14:06:17.353Z,20.72
2018-03-27T14:08:43.316Z,20.68
2018-03-27T14:11:09.266Z,20.69
2018-03-27T14:13:35.305Z,20.73
2018-03-27T14:16:01.255Z,20.70
2018-03-27T14:18:27.228Z,20.68
2018-03-27T14:20:53.179Z,20.70
2018-03-27T14:23:19.135Z,20.70
2018-03-27T14:25:45.094Z,20.69
2018-03-27T14:28:11.158Z,20.67
2018-03-27T14:30:37.154Z,20.71
2018-03-27T14:33:03.125Z,20.69
2018-03-27T14:35:29.101Z,20.73
2018-03-27T14:37:55.058Z,20.75
2018-03-27T14:40:21.032Z,20.75
2018-03-27T14:42:46.973Z,20.77
2018-03-27T14:45:12.911Z,20.75
2018-03-27T14:47:38.878Z,20.79
2018-03-27T14:50:04.869Z,20.78
2018-03-27T14:52:30.822Z,20.82
2018-03-27T14:54:56.786Z,20.80
2018-03-27T14:57:22.821Z,20.72
2018-03-27T14:59:48.755Z,20.79
2018-03-27T15:02:14.715Z,20.76
2018-03-27T15:04:40.673Z,20.74
2018-03-27T15:07:06.649Z,20.78
2018-03-27T15:09:32.616Z,20.75
2018-03-27T15:11:58.553Z,20.78
2018-03-27T15:14:24.525Z,20.79
2018-03-27T15:16:50.453Z,20.75
2018-03-27T15:19:16.419Z,20.76
2018-03-27T15:21:42.475Z,20.75
2018-03-27T15:24:08.445Z,20.73
2018-03-27T15:26:34.389Z,20.79
2018-03-27T15:29:00.344Z,20.75
2018-03-27T15:31:26.290Z,20.75
2018-03-27T15:33:52.257Z,20.72
2018-03-27T15:36:18.214Z,20.73
2018-03-27T15:38:44.198Z,20.75
2018-03-27T15:41:10.185Z,20.74
2018-03-27T15:43:36.149Z,20.76
2018-03-27T15:46:02.155Z,20.74
2018-03-27T15:48:28.093Z,20.75
2018-03-27T15:50:54.034Z,20.80
2018-03-27T15:53:20.054Z,20.78
2018-03-27T15:55:46.064Z,20.78
2018-03-27T15:58:12.040Z,20.78
2018-03-27T16:00:38.008Z,20.75
2018-03-27T16:03:03.965Z,20.69
2018-03-27T16:05:29.982Z,20.69
2018-03-27T16:07:55.944Z,20.74
2018-03-27T16:10:21.879Z,20.73
2018-03-27T16:12:47.819Z,20.71
2018-03-27T16:15:13.782Z,20.75
2018-03-27T16:17:39.747Z,20.73
2018-03-27T16:20:05.690Z,20.82
2018-03-27T16:22:31.698Z,20.91
2018-03-27T16:24:57.638Z,20.87
2018-03-27T16:27:23.579Z,20.93
2018-03-27T16:29:49.602Z,20.86
2018-03-27T16:32:15.541Z,20.87
2018-03-27T16:34:41.537Z,20.89
2018-03-27T16:37:07.478Z,20.90
2018-03-27T16:39:33.426Z,20.88
2018-03-27T16:41:59.365Z,20.85
2018-03-27T16:44:25.318Z,20.90
2018-03-27T16:46:51.333Z,20.90
2018-03-27T16:49:17.296Z,20.88
2018-03-27T16:51:43.250Z,20.85
2018-03-27T16:54:09.210Z,20.85
2018-03-27T16:56:35.153Z,20.90
2018-03-27T16:59:01.147Z,20.93
2018-03-27T17:01:27.107Z,21.01
2018-03-27T17:03:53.071Z,20.92
2018-03-27T17:06:19.031Z,20.89
2018-03-27T17:08:45.093Z,20.86
2018-03-27T17:11:11.045Z,20.84
2018-03-27T17:13:37.006Z,20.84
2018-03-27T17:16:02.966Z,20.87
2018-03-27T17:18:28.890Z,20.89
2018-03-27T17:20:54.875Z,20.93
2018-03-27T17:23:20.850Z,20.86
2018-03-27T17:25:46.870Z,20.80
2018-03-27T17:28:12.908Z,20.80
2018-03-27T17:30:38.988Z,20.96
2018-03-27T17:33:04.955Z,20.91
2018-03-27T17:35:30.907Z,20.89
2018-03-27T17:37:56.858Z,20.92
2018-03-27T17:40:22.821Z,20.95
2018-03-27T17:42:48.779Z,20.96
2018-03-27T17:45:14.711Z,20.90
2018-03-27T17:47:40.667Z,20.87
2018-03-27T17:50:06.632Z,20.90
2018-03-27T17:52:32.565Z,20.88
2018-03-27T17:54:58.528Z,20.87
2018-03-27T17:57:24.486Z,20.87
2018-03-27T17:59:50.443Z,20.82
2018-03-27T18:02:16.418Z,20.84
2018-03-27T18:04:42.402Z,20.81
2018-03-27T18:07:08.359Z,20.79
2018-03-27T18:09:34.318Z,20.80
2018-03-27T18:12:00.280Z,20.80
2018-03-27T18:14:26.242Z,20.81
2018-03-27T18:16:52.210Z,20.78
2018-03-27T18:19:18.234Z,20.75
2018-03-27T18:21:44.210Z,20.78
2018-03-27T18:24:10.160Z,20.81
2018-03-27T18:26:36.106Z,20.76
2018-03-27T18:29:02.101Z,20.79
2018-03-27T18:31:28.098Z,20.76
2018-03-27T18:33:54.122Z,20.78
2018-03-27T18:36:20.069Z,20.78
2018-03-27T18:38:46.102Z,20.78
2018-03-27T18:41:12.086Z,20.82
2018-03-27T18:43:38.050Z,20.80
2018-03-27T18:46:03.996Z,20.80
2018-03-27T18:48:29.950Z,20.73
2018-03-27T18:50:55.965Z,20.74
2018-03-27T18:53:21.907Z,20.72
2018-03-27T18:55:47.867Z,20.86
2018-03-27T18:58:13.810Z,20.79
2018-03-27T19:00:39.855Z,20.77
2018-03-27T19:03:05.811Z,20.78
2018-03-27T19:05:31.750Z,20.80
2018-03-27T19:07:57.826Z,20.81
2018-03-27T19:10:23.833Z,20.82
2018-03-27T19:12:49.954Z,20.87
2018-03-27T19:15:15.885Z,21.03
2018-03-27T19:17:41.869Z,20.94
2018-03-27T19:20:07.887Z,21.01
2018-03-27T19:22:33.874Z,20.94
2018-03-27T19:24:59.812Z,20.96
2018-03-27T19:27:25.765Z,20.93
2018-03-27T19:29:51.733Z,20.98
2018-03-27T19:32:17.713Z,20.90
2018-03-27T19:34:43.678Z,20.91
2018-03-27T19:37:09.697Z,20.88
2018-03-27T19:39:35.658Z,20.88
2018-03-27T19:42:01.640Z,20.88
2018-03-27T19:44:27.589Z,20.95
2018-03-27T19:46:53.662Z,20.89
2018-03-27T19:49:19.713Z,20.90
2018-03-27T19:51:45.676Z,20.91
2018-03-27T19:54:11.610Z,20.90
2018-03-27T19:56:37.573Z,20.92
2018-03-27T19:59:03.739Z,20.86
2018-03-27T20:01:29.650Z,20.87
2018-03-27T20:03:55.693Z,20.86
2018-03-27T20:06:21.644Z,20.95
2018-03-27T20:08:47.598Z,20.85
2018-03-27T20:11:13.597Z,20.87
2018-03-27T20:13:39.507Z,20.94
2018-03-27T20:16:05.430Z,20.97
2018-03-27T20:18:31.366Z,20.97
2018-03-27T20:20:57.361Z,20.95
2018-03-27T20:23:23.301Z,20.97
2018-03-27T20:25:49.261Z,21.01
2018-03-27T20:28:15.218Z,20.95
2018-03-27T20:30:41.272Z,20.91
2018-03-27T20:33:07.248Z,20.94
2018-03-27T20:35:33.195Z,21.03
2018-03-27T20:37:59.162Z,21.05
2018-03-27T20:40:25.106Z,20.89
2018-03-27T20:42:51.058Z,20.86
2018-03-27T20:45:17.021Z,20.87
2018-03-27T20:47:42.962Z,20.82
2018-03-27T20:50:08.936Z,20.83
2018-03-27T20:52:34.881Z,20.80
2018-03-27T20:55:00.837Z,20.82
2018-03-27T20:57:26.810Z,20.80
2018-03-27T20:59:52.754Z,20.79
2018-03-27T21:02:18.701Z,20.82
2018-03-27T21:04:44.669Z,20.79
2018-03-27T21:07:10.635Z,20.79
2018-03-27T21:09:36.570Z,20.78
2018-03-27T21:12:02.521Z,20.80
2018-03-27T21:14:28.711Z,20.77
2018-03-27T21:16:54.682Z,20.78
2018-03-27T21:19:20.625Z,20.73
2018-03-27T21:21:46.577Z,20.72
2018-03-27T21:24:12.518Z,20.70
2018-03-27T21:26:38.466Z,20.74
2018-03-27T21:29:04.443Z,20.69
2018-03-27T21:31:30.371Z,20.71
2018-03-27T21:33:56.331Z,20.73
2018-03-27T21:36:22.311Z,20.72
2018-03-27T21:38:48.245Z,20.71
2018-03-27T21:41:14.339Z,20.75
2018-03-27T21:43:40.285Z,20.69
2018-03-27T21:46:06.241Z,20.66
2018-03-27T21:48:32.267Z,20.65
2018-03-27T21:50:58.225Z,20.69
2018-03-27T21:53:24.189Z,20.68
2018-03-27T21:55:50.139Z,20.78
2018-03-27T21:58:16.114Z,20.73
2018-03-27T22:00:42.058Z,20.69
2018-03-27T22:03:08.018Z,20.60
2018-03-27T22:05:33.997Z,20.58
2018-03-27T22:07:59.971Z,20.62
2018-03-27T22:10:25.954Z,20.54
2018-03-27T22:12:51.929Z,20.55
2018-03-27T22:15:17.914Z,20.56
2018-03-27T22:17:43.854Z,20.55
2018-03-27T22:20:09.803Z,20.54
2018-03-27T22:22:35.749Z,20.53
2018-03-27T22:25:01.689Z,20.57
2018-03-27T22:27:27.634Z,20.53
2018-03-27T22:29:53.577Z,20.54
2018-03-27T22:32:19.542Z,20.52
2018-03-27T22:34:45.571Z,20.57
2018-03-27T22:37:11.631Z,20.50
2018-03-27T22:39:37.698Z,20.51
2018-03-27T22:42:03.707Z,20.50
2018-03-27T22:44:29.661Z,20.50
2018-03-27T22:46:55.598Z,20.52
2018-03-27T22:49:21.609Z,20.52
2018-03-27T22:51:47.542Z,20.55
2018-03-27T22:54:13.493Z,20.50
2018-03-27T22:56:39.431Z,20.49
2018-03-27T22:59:05.391Z,20.46
2018-03-27T23:01:31.327Z,20.44
2018-03-27T23:03:57.283Z,20.47
2018-03-27T23:06:23.218Z,20.45
2018-03-27T23:08:49.169Z,20.44
2018-03-27T23:11:15.109Z,20.47
2018-03-27T23:13:41.069Z,20.47
2018-03-27T23:16:07.015Z,20.46
2018-03-27T23:18:32.953Z,20.50
2018-03-27T23:20:58.893Z,20.45
2018-03-27T23:23:24.834Z,20.43
2018-03-27T23:25:50.781Z,20.45
2018-03-27T23:28:16.729Z,20.50
2018-03-27T23:30:42.665Z,20.43
2018-03-27T23:33:08.597Z,20.39
2018-03-27T23:35:34.533Z,20.37
2018-03-27T23:38:00.473Z,20.40
2018-03-27T23:40:26.435Z,20.42
2018-03-27T23:42:52.413Z,20.42
2018-03-27T23:45:18.377Z,20.40
2018-03-27T23:47:44.322Z,20.38
2018-03-27T23:50:10.269Z,20.36
2018-03-27T23:52:36.209Z,20.38
2018-03-27T23:55:02.205Z,20.41
2018-03-27T23:57:28.161Z,20.37
2018-03-27T23:59:54.128Z,20.38
